Time;durP1;ratioP1;P1;durP2;ratioP2;P2;SDS_P1;SDS_P2;PMS_P1;PMS_P2;Temp;Humidity;BMP_temperature;BMP_pressure;BME280_temperature;BME280_humidity;BME280_pressure;Samples;Min_cycle;Max_cycle;Signal;HPM_P1;HPM_P2
2022/09/09 03:50:39;;;;;;;;;;;;;;;20.52;67.02;96744.41;4224023;27;10387;-68
2022/09/09 03:52:42;;;;;;;;;;;;;;;20.81;66.70;96746.75;4224316;28;5827;-68
2022/09/09 03:54:45;;;;;;;;;;;;;;;21.02;66.37;96742.31;4215558;28;5842;-68
2022/09/09 03:56:47;;;;;;;;;;;;;;;21.19;65.59;96737.56;4226710;28;5672;-69
2022/09/09 03:58:50;;;;;;;;;;;;;;;21.32;65.65;96739.00;4215197;28;5697;-68
2022/09/09 04:00:55;;;;;;;;;;;;;;;21.42;65.45;96739.84;4215258;28;5701;-69
2022/09/09 04:02:58;;;;;;;;;;;;;;;21.50;65.03;96730.44;4222899;28;5656;-69
2022/09/09 04:05:00;;;;;;;;;;;;;;;21.57;65.08;96730.19;4231338;27;5918;-70
2022/09/09 04:07:06;;;;;;;;;;;;;;;21.64;64.85;96730.78;4230940;28;7876;-70
2022/09/09 04:09:09;;;;;;;;;;;;;;;21.70;64.72;96732.38;4231016;28;5676;-70
2022/09/09 04:11:12;;;;;;;;;;;;;;;21.74;64.22;96730.78;4230743;28;5660;-70
2022/09/09 04:13:16;;;;;;;;;;;;;;;21.76;64.36;96731.34;4231011;28;6386;-70
2022/09/09 04:15:19;;;;;;;;;;;;;;;21.79;64.26;96725.41;4229531;28;5680;-70
2022/09/09 04:17:21;;;;;;;;;;;;;;;21.82;64.33;96719.50;4231009;28;5671;-69
2022/09/09 04:19:24;;;;;;;;;;;;;;;21.87;63.98;96724.91;4231114;28;5739;-69
2022/09/09 04:21:27;;;;;;;;;;;;;;;21.86;64.20;96725.97;4230891;28;5664;-70
2022/09/09 04:23:31;;;;;;;;;;;;;;;21.89;63.72;96722.75;4231047;28;5654;-70
2022/09/09 04:25:34;;;;;;;;;;;;;;;21.91;64.01;96725.16;4230744;28;5675;-69
2022/09/09 04:27:36;;;;;;;;;;;;;;;21.91;63.74;96717.09;4231077;28;5676;-70
2022/09/09 04:29:39;;;;;;;;;;;;;;;21.94;63.67;96728.13;4231038;28;5667;-69
2022/09/09 04:31:42;;;;;;;;;;;;;;;21.95;63.80;96724.34;4229566;28;6360;-69
2022/09/09 04:33:46;;;;;;;;;;;;;;;21.96;63.27;96719.78;4230979;28;5814;-69
2022/09/09 04:35:50;;;;;;;;;;;;;;;21.96;63.61;96719.78;4231016;28;6349;-69
2022/09/09 04:37:53;;;;;;;;;;;;;;;21.96;63.56;96725.16;4226448;28;5706;-69
2022/09/09 04:39:57;;;;;;;;;;;;;;;21.96;63.28;96720.59;4217422;28;5837;-69
2022/09/09 04:42:00;;;;;;;;;;;;;;;21.98;63.34;96723.84;4230759;28;5675;-68
2022/09/09 04:44:02;;;;;;;;;;;;;;;22.00;63.10;96726.25;4228569;28;5177;-75
2022/09/09 04:46:06;;;;;;;;;;;;;;;22.00;63.20;96721.69;4222021;28;5917;-68
2022/09/09 04:48:10;;;;;;;;;;;;;;;22.03;62.90;96721.16;4225113;28;5672;-68
2022/09/09 04:50:13;;;;;;;;;;;;;;;22.03;63.17;96712.25;4217648;28;5692;-69
2022/09/09 04:52:17;;;;;;;;;;;;;;;22.01;62.84;96711.72;4208558;28;5737;-68
2022/09/09 04:54:19;;;;;;;;;;;;;;;22.01;62.81;96723.31;4215680;28;5676;-69
2022/09/09 04:56:25;;;;;;;;;;;;;;;22.00;62.60;96715.50;4206764;28;5701;-68
2022/09/09 04:58:28;;;;;;;;;;;;;;;21.99;62.99;96716.56;4208053;28;5716;-69
2022/09/09 05:00:31;;;;;;;;;;;;;;;21.98;62.39;96715.78;4207310;28;5791;-69
2022/09/09 05:02:38;;;;;;;;;;;;;;;21.95;62.50;96718.97;4207352;28;5672;-69
2022/09/09 05:04:40;;;;;;;;;;;;;;;21.94;62.87;96722.75;4213982;28;7699;-68
2022/09/09 05:06:43;;;;;;;;;;;;;;;21.89;62.70;96730.00;4208837;28;5704;-69
2022/09/09 05:08:46;;;;;;;;;;;;;;;21.85;62.72;96732.41;4208003;28;5812;-69
2022/09/09 05:10:48;;;;;;;;;;;;;;;21.86;62.37;96736.75;4202751;28;5693;-69
2022/09/09 05:12:56;;;;;;;;;;;;;;;21.86;62.71;96730.53;4210753;28;5693;-69
2022/09/09 05:14:58;;;;;;;;;;;;;;;21.88;62.33;96731.91;4201984;28;5689;-69
2022/09/09 05:17:01;;;;;;;;;;;;;;;21.91;62.10;96734.03;4213111;28;5667;-69
2022/09/09 05:19:04;;;;;;;;;;;;;;;21.92;62.21;96732.97;4210085;28;5707;-68
2022/09/09 05:21:07;;;;;;;;;;;;;;;21.91;62.39;96736.75;4211408;28;5814;-70
2022/09/09 05:23:11;;;;;;;;;;;;;;;21.91;62.38;96734.03;4212022;28;5664;-69
2022/09/09 05:25:13;;;;;;;;;;;;;;;21.91;62.10;96734.03;4209224;28;5827;-69
2022/09/09 05:27:18;;;;;;;;;;;;;;;21.93;62.10;96739.97;4215707;28;5751;-69
2022/09/09 05:29:22;;;;;;;;;;;;;;;21.92;62.21;96741.03;4204197;28;5816;-74
2022/09/09 05:31:28;;;;;;;;;;;;;;;21.89;62.12;96736.22;4206847;28;6288;-73
2022/09/09 05:33:31;;;;;;;;;;;;;;;21.89;62.34;96744.28;4205933;28;5656;-72
2022/09/09 05:35:34;;;;;;;;;;;;;;;21.85;61.98;96737.78;4215553;28;5198;-73
2022/09/09 05:37:37;;;;;;;;;;;;;;;21.88;62.13;96739.97;4217074;28;5762;-73
2022/09/09 05:39:40;;;;;;;;;;;;;;;21.89;61.81;96736.22;4213399;28;6338;-73
2022/09/09 05:41:43;;;;;;;;;;;;;;;21.85;61.96;96740.47;4207460;28;6359;-73
2022/09/09 05:43:48;;;;;;;;;;;;;;;21.84;62.10;96738.88;4217599;28;5675;-73
2022/09/09 05:46:02;;;;;;;;;;;;;;;21.86;62.03;96736.75;4218558;28;5672;-73
2022/09/09 05:48:05;;;;;;;;;;;;;;;21.87;61.96;96743.75;4216776;28;5860;-74
2022/09/09 05:50:09;;;;;;;;;;;;;;;21.89;61.54;96746.97;4208958;28;5751;-74
2022/09/09 05:52:11;;;;;;;;;;;;;;;21.89;61.65;96748.84;4217752;28;5676;-73
2022/09/09 05:54:15;;;;;;;;;;;;;;;21.86;61.69;96747.50;4217558;28;5730;-73
2022/09/09 05:56:23;;;;;;;;;;;;;;;21.88;61.70;96742.66;4216083;28;5660;-74
2022/09/09 05:58:26;;;;;;;;;;;;;;;21.87;61.63;96742.94;4218441;28;5834;-73
2022/09/09 06:00:31;;;;;;;;;;;;;;;21.86;61.50;96743.97;4218272;28;5667;-73
2022/09/09 06:02:37;;;;;;;;;;;;;;;21.90;61.45;96748.59;4211634;28;6375;-73
2022/09/09 06:04:40;;;;;;;;;;;;;;;21.94;61.66;96754.22;4201558;28;5700;-74
2022/09/09 06:06:43;;;;;;;;;;;;;;;21.93;61.60;96748.03;4212183;28;5681;-73
2022/09/09 06:08:46;;;;;;;;;;;;;;;21.94;61.86;96755.03;4217792;28;5762;-73
2022/09/09 06:10:48;;;;;;;;;;;;;;;21.98;61.47;96749.94;4215858;28;5841;-73
2022/09/09 06:12:54;;;;;;;;;;;;;;;22.02;61.78;96757.22;4217914;28;5771;-73
2022/09/09 06:14:56;;;;;;;;;;;;;;;22.07;61.90;96759.13;4216461;28;5695;-72
2022/09/09 06:16:59;;;;;;;;;;;;;;;22.11;61.64;96760.22;4210676;28;5668;-73
2022/09/09 06:19:04;;;;;;;;;;;;;;;22.13;61.57;96762.66;4217654;28;5672;-74
2022/09/09 06:21:08;;;;;;;;;;;;;;;22.07;61.38;96759.94;4216932;28;5828;-73
2022/09/09 06:23:12;;;;;;;;;;;;;;;22.08;61.55;96763.44;4217046;28;5663;-73
2022/09/09 06:25:14;;;;;;;;;;;;;;;22.06;61.42;96769.09;4217200;28;5755;-73
2022/09/09 06:27:17;;;;;;;;;;;;;;;22.05;61.31;96766.63;4217724;28;5656;-73
2022/09/09 06:29:20;;;;;;;;;;;;;;;22.04;61.17;96771.22;4217623;28;5665;-73
2022/09/09 06:31:25;;;;;;;;;;;;;;;22.01;61.37;96774.44;4217685;28;5837;-73
2022/09/09 06:33:34;;;;;;;;;;;;;;;22.03;61.45;96768.78;4217635;28;5680;-73
2022/09/09 06:35:38;;;;;;;;;;;;;;;22.05;61.10;96770.13;4217661;28;5762;-73
2022/09/09 06:37:46;;;;;;;;;;;;;;;22.04;60.92;96776.59;4217558;28;5668;-73
2022/09/09 06:39:48;;;;;;;;;;;;;;;22.02;61.20;96775.25;4217238;28;5672;-73
2022/09/09 06:41:52;;;;;;;;;;;;;;;22.03;61.17;96774.97;4217173;28;5679;-74
2022/09/09 06:43:56;;;;;;;;;;;;;;;21.98;60.83;96771.50;4217667;28;5805;-74
2022/09/09 06:46:01;;;;;;;;;;;;;;;21.97;60.84;96776.06;4215938;28;5635;-74
2022/09/09 06:48:04;;;;;;;;;;;;;;;21.94;61.13;96768.50;4217248;28;5758;-74
2022/09/09 06:50:07;;;;;;;;;;;;;;;21.97;61.01;96777.91;4216709;28;5727;-74
2022/09/09 06:52:12;;;;;;;;;;;;;;;21.97;61.02;96770.69;4215831;28;5683;-74
2022/09/09 06:54:15;;;;;;;;;;;;;;;21.99;60.85;96771.22;4217304;28;5738;-74
2022/09/09 06:56:22;;;;;;;;;;;;;;;21.99;60.84;96773.09;4216822;28;5763;-74
2022/09/09 06:58:25;;;;;;;;;;;;;;;22.02;60.97;96776.06;4217518;28;5755;-74
2022/09/09 07:00:30;;;;;;;;;;;;;;;22.05;60.92;96780.09;4217157;28;5774;-74
2022/09/09 07:02:38;;;;;;;;;;;;;;;22.10;61.01;96773.97;4216965;28;5763;-73
2022/09/09 07:04:41;;;;;;;;;;;;;;;22.15;60.69;96782.03;4217448;28;6320;-73
2022/09/09 07:06:46;;;;;;;;;;;;;;;22.20;60.71;96776.63;4217023;28;5688;-74
2022/09/09 07:08:55;;;;;;;;;;;;;;;22.21;61.03;96786.38;4216841;28;5727;-74
2022/09/09 07:11:04;;;;;;;;;;;;;;;22.26;60.43;96786.34;4216952;28;6470;-74
2022/09/09 07:13:15;;;;;;;;;;;;;;;22.27;60.68;96780.69;4216386;28;6924;-74
2022/09/09 07:15:18;;;;;;;;;;;;;;;22.29;60.65;96783.13;4217079;28;5716;-74
2022/09/09 07:17:21;;;;;;;;;;;;;;;22.29;60.68;96783.13;4216886;28;5689;-74
2022/09/09 07:19:24;;;;;;;;;;;;;;;22.30;60.69;96788.22;4217169;28;5699;-74
2022/09/09 07:21:28;;;;;;;;;;;;;;;22.31;60.35;96781.81;4213647;28;5706;-70
2022/09/09 07:23:31;;;;;;;;;;;;;;;22.26;60.53;96784.47;4210277;28;6353;-71
2022/09/09 07:25:46;;;;;;;;;;;;;;;22.27;60.25;96782.59;4203432;28;5797;-70
2022/09/09 07:27:49;;;;;;;;;;;;;;;22.28;60.51;96789.59;4215582;28;5687;-72
2022/09/09 07:29:53;;;;;;;;;;;;;;;22.29;60.26;96778.53;4215660;28;5124;-69
2022/09/09 07:31:56;;;;;;;;;;;;;;;22.33;60.06;96784.22;4215994;28;5819;-69
2022/09/09 07:34:00;;;;;;;;;;;;;;;22.37;60.04;96785.28;4214410;28;5661;-69
2022/09/09 07:36:05;;;;;;;;;;;;;;;22.38;59.95;96787.72;4216727;28;5818;-69
2022/09/09 07:38:09;;;;;;;;;;;;;;;22.38;60.08;96792.28;4215922;28;5735;-68
2022/09/09 07:40:12;;;;;;;;;;;;;;;22.43;59.85;96789.63;4216369;28;5770;-68
2022/09/09 07:42:16;;;;;;;;;;;;;;;22.46;59.92;96789.06;4209967;28;5615;-68
2022/09/09 07:44:21;;;;;;;;;;;;;;;22.45;60.32;96792.84;4211765;28;5703;-67
2022/09/09 07:46:27;;;;;;;;;;;;;;;22.38;59.75;96795.78;4216934;28;5841;-68
2022/09/09 07:48:30;;;;;;;;;;;;;;;22.33;59.59;96790.41;4216494;28;5081;-68
2022/09/09 07:50:33;;;;;;;;;;;;;;;22.28;59.65;96786.88;4214898;28;5656;-68
2022/09/09 07:52:35;;;;;;;;;;;;;;;22.25;59.72;96793.63;4216551;28;5714;-68
2022/09/09 07:54:38;;;;;;;;;;;;;;;22.27;59.30;96799.53;4208724;28;5735;-67
2022/09/09 07:56:42;;;;;;;;;;;;;;;22.27;59.00;96796.84;4208419;28;5672;-68
2022/09/09 07:58:47;;;;;;;;;;;;;;;22.26;58.88;96805.22;4216809;28;5875;-69
2022/09/09 08:00:50;;;;;;;;;;;;;;;22.25;59.10;96808.97;4208468;28;5672;-68
2022/09/09 08:02:53;;;;;;;;;;;;;;;22.25;58.65;96811.66;4214848;28;5671;-68
2022/09/09 08:04:57;;;;;;;;;;;;;;;22.27;59.00;96812.22;4214518;28;5683;-68
2022/09/09 08:07:02;;;;;;;;;;;;;;;22.27;58.84;96814.91;4199609;28;5690;-69
2022/09/09 08:09:06;;;;;;;;;;;;;;;22.25;58.73;96815.16;4199985;28;5771;-69
2022/09/09 08:11:11;;;;;;;;;;;;;;;22.30;58.46;96814.34;4199342;28;5753;-69
2022/09/09 08:13:14;;;;;;;;;;;;;;;22.30;58.33;96814.34;4199943;28;5710;-69
2022/09/09 08:15:22;;;;;;;;;;;;;;;22.33;58.50;96827.31;4200072;28;5729;-69
2022/09/09 08:17:24;;;;;;;;;;;;;;;22.36;58.36;96822.19;4200275;28;5964;-69
2022/09/09 08:19:29;;;;;;;;;;;;;;;22.39;58.23;96826.22;4199895;28;5728;-69
2022/09/09 08:21:33;;;;;;;;;;;;;;;22.45;57.99;96829.75;4199906;28;5674;-69
2022/09/09 08:23:36;;;;;;;;;;;;;;;22.51;57.83;96825.97;4200318;28;5701;-69
2022/09/09 08:25:38;;;;;;;;;;;;;;;22.52;57.82;96827.59;4200360;28;5756;-69
2022/09/09 08:27:41;;;;;;;;;;;;;;;22.50;57.94;96827.84;4202891;28;5697;-69
2022/09/09 08:29:44;;;;;;;;;;;;;;;22.51;57.52;96834.84;4203106;28;5701;-68
2022/09/09 08:31:51;;;;;;;;;;;;;;;22.52;57.41;96824.88;4202898;28;5698;-68
2022/09/09 08:33:53;;;;;;;;;;;;;;;22.52;57.31;96835.66;4202899;28;5840;-68
2022/09/09 08:35:56;;;;;;;;;;;;;;;22.51;57.58;96826.78;4202878;28;5709;-68
2022/09/09 08:37:59;;;;;;;;;;;;;;;22.51;57.44;96832.16;4202765;28;5752;-69
2022/09/09 08:40:02;;;;;;;;;;;;;;;22.52;56.85;96827.59;4202327;28;5694;-69
2022/09/09 08:42:26;;;;;;;;;;;;;;;22.50;57.24;96835.94;4202916;28;5775;-70
2022/09/09 08:44:42;;;;;;;;;;;;;;;22.53;56.84;96831.88;4202910;28;5796;-69
2022/09/09 08:47:00;;;;;;;;;;;;;;;22.54;56.50;96845.13;4202867;28;5796;-69
2022/09/09 08:49:15;;;;;;;;;;;;;;;22.56;56.42;96837.56;4207087;28;5939;-69
2022/09/09 08:51:17;;;;;;;;;;;;;;;22.58;56.38;96840.81;4210263;28;5771;-69
2022/09/09 08:53:24;;;;;;;;;;;;;;;22.59;56.71;96839.72;4219181;28;5663;-70
2022/09/09 08:55:36;;;;;;;;;;;;;;;22.62;56.00;96836.47;4219038;28;5731;-70
2022/09/09 08:57:40;;;;;;;;;;;;;;;22.67;55.96;96839.19;4219235;28;5687;-69
2022/09/09 08:59:42;;;;;;;;;;;;;;;22.70;55.88;96847.81;4219240;28;5667;-70
2022/09/09 09:01:57;;;;;;;;;;;;;;;22.71;56.37;96841.34;4219178;28;5759;-70
2022/09/09 09:04:08;;;;;;;;;;;;;;;22.73;55.99;96849.97;4219327;28;5882;-69
2022/09/09 09:06:27;;;;;;;;;;;;;;;22.72;55.65;96851.03;4219099;28;5676;-70
2022/09/09 09:08:41;;;;;;;;;;;;;;;22.71;56.00;96854.81;4219049;28;5669;-70
2022/09/09 09:10:48;;;;;;;;;;;;;;;22.74;55.73;96859.66;4218719;28;5675;-69
2022/09/09 09:12:52;;;;;;;;;;;;;;;22.77;55.50;96853.75;4218922;28;5672;-70
2022/09/09 09:14:56;;;;;;;;;;;;;;;22.75;55.79;96845.91;4219099;28;5775;-70
2022/09/09 09:17:03;;;;;;;;;;;;;;;22.76;55.49;96844.84;4218854;28;5660;-68
2022/09/09 09:19:12;;;;;;;;;;;;;;;22.77;55.20;96842.97;4219305;28;5776;-70
2022/09/09 09:21:20;;;;;;;;;;;;;;;22.78;55.14;96842.69;4219099;28;5874;-70
2022/09/09 09:23:26;;;;;;;;;;;;;;;22.78;54.99;96836.50;4219007;28;5671;-70
2022/09/09 09:25:35;;;;;;;;;;;;;;;22.79;55.24;96843.50;4217766;28;5870;-69
2022/09/09 09:27:46;;;;;;;;;;;;;;;22.82;55.23;96838.38;4218865;28;5750;-69
2022/09/09 09:29:52;;;;;;;;;;;;;;;22.83;54.97;96841.88;4218819;28;5788;-69
2022/09/09 09:32:20;;;;;;;;;;;;;;;22.86;54.41;96844.06;4218339;28;5794;-69
2022/09/09 09:34:25;;;;;;;;;;;;;;;22.90;54.59;96840.56;4218921;28;5684;-69
2022/09/09 09:36:36;;;;;;;;;;;;;;;22.93;54.36;96841.91;4218603;28;5696;-69
2022/09/09 09:38:39;;;;;;;;;;;;;;;22.95;54.33;96845.13;4218270;28;5786;-69
2022/09/09 09:41:02;;;;;;;;;;;;;;;22.97;54.08;96837.59;4218163;28;5684;-69
2022/09/09 09:43:08;;;;;;;;;;;;;;;22.99;54.09;96842.69;4218530;28;5767;-69
2022/09/09 09:45:21;;;;;;;;;;;;;;;22.99;54.09;96837.31;4218593;28;5699;-69
2022/09/09 09:47:26;;;;;;;;;;;;;;;23.01;54.09;96840.56;4218462;28;5675;-69
2022/09/09 09:49:29;;;;;;;;;;;;;;;23.01;54.26;96849.47;4216873;28;5676;-69
2022/09/09 09:51:36;;;;;;;;;;;;;;;23.00;53.66;96842.47;4209472;28;5649;-70
2022/09/09 09:53:40;;;;;;;;;;;;;;;23.00;53.61;96839.75;4218429;28;5765;-69
2022/09/09 09:55:53;;;;;;;;;;;;;;;22.99;53.85;96838.16;4218578;28;5676;-69
2022/09/09 09:58:02;;;;;;;;;;;;;;;23.01;53.77;96841.38;4218807;28;5675;-69
2022/09/09 10:00:17;;;;;;;;;;;;;;;23.03;53.43;96847.28;4218685;28;5786;-70
2022/09/09 10:02:24;;;;;;;;;;;;;;;23.04;53.25;96837.31;4216873;28;5837;-69
2022/09/09 10:04:28;;;;;;;;;;;;;;;23.04;53.19;96846.22;4218602;28;5788;-69
2022/09/09 10:06:33;;;;;;;;;;;;;;;23.06;53.33;96841.34;4218571;28;5664;-69
2022/09/09 10:08:46;;;;;;;;;;;;;;;23.09;53.07;96843.50;4217875;28;5699;-69
2022/09/09 10:11:03;;;;;;;;;;;;;;;23.08;52.86;96847.28;4218223;28;5664;-70
2022/09/09 10:13:12;;;;;;;;;;;;;;;23.08;53.08;96844.59;4218464;28;5696;-69
2022/09/09 10:15:38;;;;;;;;;;;;;;;23.07;52.29;96848.38;4218143;28;5883;-69
2022/09/09 10:17:51;;;;;;;;;;;;;;;23.10;52.39;96847.00;4217210;28;5657;-70
2022/09/09 10:20:14;;;;;;;;;;;;;;;23.11;52.51;96849.44;4204558;28;5660;-70
2022/09/09 10:22:27;;;;;;;;;;;;;;;23.08;51.87;96847.28;4206293;28;5689;-70
2022/09/09 10:24:44;;;;;;;;;;;;;;;23.08;51.83;96841.88;4206316;28;5838;-69
2022/09/09 10:26:52;;;;;;;;;;;;;;;23.10;51.53;96842.41;4216177;28;5660;-69
2022/09/09 10:29:09;;;;;;;;;;;;;;;23.10;51.76;96845.13;4217967;28;5750;-69
2022/09/09 10:31:23;;;;;;;;;;;;;;;23.11;51.59;96835.97;4218080;28;5672;-68
2022/09/09 10:33:35;;;;;;;;;;;;;;;23.12;51.04;96836.78;4218135;28;5691;-68
2022/09/09 10:35:46;;;;;;;;;;;;;;;23.15;51.38;96839.72;4217905;28;5676;-70
2022/09/09 10:38:11;;;;;;;;;;;;;;;23.16;51.36;96837.84;4214738;28;5687;-69
2022/09/09 10:40:27;;;;;;;;;;;;;;;23.12;50.98;96832.19;4198481;28;5693;-68
2022/09/09 10:42:32;;;;;;;;;;;;;;;23.15;50.49;96837.03;4201194;28;6022;-68
2022/09/09 10:44:51;;;;;;;;;;;;;;;23.17;50.88;96837.56;4201027;28;5796;-68
2022/09/09 10:47:19;;;;;;;;;;;;;;;23.19;50.60;96832.69;4200913;28;5888;-68
2022/09/09 10:49:43;;;;;;;;;;;;;;;23.21;50.41;96833.22;4200127;28;5690;-69
2022/09/09 10:51:58;;;;;;;;;;;;;;;23.22;49.90;96823.28;4209909;28;5664;-69
2022/09/09 10:54:25;;;;;;;;;;;;;;;23.24;50.06;96829.19;4200676;28;5780;-69
2022/09/09 10:56:29;;;;;;;;;;;;;;;23.25;49.96;96833.50;4204014;28;5924;-69
2022/09/09 10:58:42;;;;;;;;;;;;;;;23.27;49.80;96830.53;4217418;28;5667;-69
2022/09/09 11:00:49;;;;;;;;;;;;;;;23.27;50.04;96825.16;4215326;28;6503;-69
2022/09/09 11:02:58;;;;;;;;;;;;;;;23.30;49.86;96832.69;4214362;28;6432;-70
2022/09/09 11:05:04;;;;;;;;;;;;;;;23.34;49.82;96833.78;4217371;28;5778;-69
2022/09/09 11:07:14;;;;;;;;;;;;;;;23.37;49.90;96825.13;4217586;28;5668;-69
2022/09/09 11:09:20;;;;;;;;;;;;;;;23.39;49.49;96833.75;4216262;28;5672;-70
2022/09/09 11:11:30;;;;;;;;;;;;;;;23.37;49.49;96831.31;4214427;28;5676;-69
2022/09/09 11:13:39;;;;;;;;;;;;;;;23.37;49.60;96835.91;4200509;28;5689;-70
2022/09/09 11:15:46;;;;;;;;;;;;;;;23.38;49.01;96837.53;4207549;28;5689;-70
2022/09/09 11:17:51;;;;;;;;;;;;;;;23.41;48.89;96835.09;4200211;28;5693;-69
2022/09/09 11:19:54;;;;;;;;;;;;;;;23.42;48.68;96825.91;4200416;28;6382;-69
2022/09/09 11:21:59;;;;;;;;;;;;;;;23.42;49.13;96828.59;4213758;28;5676;-70
2022/09/09 11:24:10;;;;;;;;;;;;;;;23.47;48.87;96833.19;4217381;28;5664;-70
2022/09/09 11:26:19;;;;;;;;;;;;;;;23.48;49.06;96816.72;4200360;28;5788;-70
2022/09/09 11:28:47;;;;;;;;;;;;;;;23.51;48.42;96820.75;4200299;28;6436;-70
2022/09/09 11:31:08;;;;;;;;;;;;;;;23.52;48.26;96819.66;4200410;28;5693;-69
2022/09/09 11:33:37;;;;;;;;;;;;;;;23.51;48.27;96813.47;4200158;28;5729;-70
2022/09/09 11:35:54;;;;;;;;;;;;;;;23.53;48.48;96813.19;4200192;28;5689;-70
2022/09/09 11:38:22;;;;;;;;;;;;;;;23.55;48.17;96824.50;4200333;28;5799;-70
2022/09/09 11:40:28;;;;;;;;;;;;;;;23.56;48.17;96825.31;4192862;28;5772;-70
2022/09/09 11:42:31;;;;;;;;;;;;;;;23.55;47.58;96827.22;4200183;28;5697;-70
2022/09/09 11:44:33;;;;;;;;;;;;;;;23.56;47.95;96822.63;4200393;28;5689;-70
2022/09/09 11:46:39;;;;;;;;;;;;;;;23.57;47.29;96829.66;4200103;28;5701;-70
2022/09/09 11:48:45;;;;;;;;;;;;;;;23.60;47.28;96831.84;4199900;28;5716;-70
2022/09/09 11:50:59;;;;;;;;;;;;;;;23.60;46.83;96829.13;4210421;28;5675;-70
2022/09/09 11:53:23;;;;;;;;;;;;;;;23.64;47.33;96827.50;4217079;28;5736;-70
2022/09/09 11:55:32;;;;;;;;;;;;;;;23.68;46.95;96836.66;4216299;28;5672;-69
2022/09/09 11:57:37;;;;;;;;;;;;;;;23.70;46.75;96832.59;4217132;28;5762;-70
2022/09/09 11:59:51;;;;;;;;;;;;;;;23.73;46.69;96840.13;4217075;28;5668;-70
2022/09/09 12:01:57;;;;;;;;;;;;;;;23.76;46.77;96846.88;4219846;28;5672;-70
2022/09/09 12:04:17;;;;;;;;;;;;;;;23.79;46.76;96838.25;4220532;28;5672;-69
2022/09/09 12:06:31;;;;;;;;;;;;;;;23.83;46.56;96839.31;4220358;28;5672;-70
2022/09/09 12:08:36;;;;;;;;;;;;;;;23.83;46.12;96828.50;4218851;28;5667;-70
2022/09/09 12:10:41;;;;;;;;;;;;;;;23.85;45.98;96828.22;4220061;28;5699;-70
2022/09/09 12:12:43;;;;;;;;;;;;;;;23.87;46.41;96823.34;4220353;28;5672;-70
2022/09/09 12:14:57;;;;;;;;;;;;;;;23.89;46.44;96838.19;4217696;28;5676;-70
2022/09/09 12:17:11;;;;;;;;;;;;;;;23.92;46.17;96839.53;4220133;28;5688;-70
2022/09/09 12:19:17;;;;;;;;;;;;;;;23.95;46.13;96831.69;4216122;28;5810;-70
2022/09/09 12:21:36;;;;;;;;;;;;;;;23.99;45.95;96829.22;4210584;28;5758;-70
2022/09/09 12:23:48;;;;;;;;;;;;;;;24.01;45.71;96819.78;4219260;28;5747;-70
2022/09/09 12:26:02;;;;;;;;;;;;;;;24.04;45.60;96832.72;4219747;28;5766;-71
2022/09/09 12:28:09;;;;;;;;;;;;;;;24.04;45.55;96834.63;4219792;28;5758;-71
2022/09/09 12:30:16;;;;;;;;;;;;;;;24.05;45.54;96833.53;4211497;28;6403;-70
2022/09/09 12:32:23;;;;;;;;;;;;;;;24.05;45.44;96828.13;4202664;28;5768;-71
2022/09/09 12:34:36;;;;;;;;;;;;;;;24.07;45.22;96832.16;4202589;28;5713;-71
2022/09/09 12:36:41;;;;;;;;;;;;;;;24.15;45.08;96824.56;4211865;28;5667;-71
2022/09/09 12:38:45;;;;;;;;;;;;;;;24.18;45.13;96830.22;4212025;28;5696;-71
2022/09/09 12:40:57;;;;;;;;;;;;;;;24.23;44.85;96829.34;4214538;28;5684;-71
2022/09/09 12:43:01;;;;;;;;;;;;;;;24.24;45.07;96834.50;4219594;28;5872;-71
2022/09/09 12:45:17;;;;;;;;;;;;;;;24.23;44.78;96830.16;4219573;28;7725;-71
2022/09/09 12:47:25;;;;;;;;;;;;;;;24.20;44.88;96828.03;4202761;28;5769;-71
2022/09/09 12:49:35;;;;;;;;;;;;;;;24.20;44.72;96824.53;4203442;28;5984;-71
2022/09/09 12:51:38;;;;;;;;;;;;;;;24.17;44.55;96823.19;4210594;28;7707;-70
2022/09/09 12:53:41;;;;;;;;;;;;;;;24.17;44.69;96825.91;4219143;28;6346;-71
2022/09/09 12:55:52;;;;;;;;;;;;;;;24.18;44.40;96824.00;4219213;28;5672;-71
2022/09/09 12:57:56;;;;;;;;;;;;;;;24.20;44.50;96821.81;4219521;28;5759;-71
2022/09/09 13:00:09;;;;;;;;;;;;;;;24.19;44.73;96815.63;4219453;28;6383;-68
2022/09/09 13:02:19;;;;;;;;;;;;;;;24.19;44.63;96809.41;4219241;28;6896;-70
2022/09/09 13:04:22;;;;;;;;;;;;;;;24.19;44.32;96810.22;4219415;28;5689;-70
2022/09/09 13:06:27;;;;;;;;;;;;;;;24.20;44.11;96813.72;4219112;28;5758;-71
2022/09/09 13:08:31;;;;;;;;;;;;;;;24.18;43.91;96814.00;4219008;28;5758;-70
2022/09/09 13:10:38;;;;;;;;;;;;;;;24.15;43.98;96811.06;4218583;28;6365;-71
2022/09/09 13:13:00;;;;;;;;;;;;;;;24.12;44.09;96815.09;4214578;28;5713;-72
2022/09/09 13:15:03;;;;;;;;;;;;;;;24.15;44.35;96809.16;4206264;28;6602;-71
2022/09/09 13:17:16;;;;;;;;;;;;;;;24.19;44.28;96810.22;4218133;28;5712;-70
2022/09/09 13:19:21;;;;;;;;;;;;;;;24.25;44.07;96809.09;4215018;28;5684;-71
2022/09/09 13:21:34;;;;;;;;;;;;;;;24.28;44.07;96800.44;4208898;28;5847;-71
2022/09/09 13:23:38;;;;;;;;;;;;;;;24.31;43.50;96805.31;4214391;28;5680;-69
2022/09/09 13:25:43;;;;;;;;;;;;;;;24.32;43.91;96800.69;4212416;28;6378;-70
2022/09/09 13:27:54;;;;;;;;;;;;;;;24.32;43.38;96801.50;4209740;28;5697;-70
2022/09/09 13:29:58;;;;;;;;;;;;;;;24.35;43.41;96798.28;4214537;28;5672;-70
2022/09/09 13:32:07;;;;;;;;;;;;;;;24.37;43.61;96796.09;4210386;28;5686;-70
2022/09/09 13:34:15;;;;;;;;;;;;;;;24.41;43.47;96790.91;4215804;28;6247;-71
2022/09/09 13:36:30;;;;;;;;;;;;;;;24.43;43.53;96791.44;4217355;28;5746;-71
2022/09/09 13:38:36;;;;;;;;;;;;;;;24.41;43.06;96782.00;4218426;28;5814;-70
2022/09/09 13:40:39;;;;;;;;;;;;;;;24.41;43.29;96780.09;4218499;28;5814;-71
2022/09/09 13:42:42;;;;;;;;;;;;;;;24.40;43.12;96781.19;4214428;28;5671;-71
2022/09/09 13:44:47;;;;;;;;;;;;;;;24.38;43.20;96784.19;4204804;28;5867;-70
2022/09/09 13:47:04;;;;;;;;;;;;;;;24.35;43.20;96783.94;4205055;28;5688;-70
2022/09/09 13:49:22;;;;;;;;;;;;;;;24.29;42.99;96777.72;4202111;28;5689;-70
2022/09/09 13:51:34;;;;;;;;;;;;;;;24.27;42.90;96773.72;4208434;28;5676;-70
2022/09/09 13:53:36;;;;;;;;;;;;;;;24.26;43.28;96772.09;4201410;28;5780;-70
2022/09/09 13:55:39;;;;;;;;;;;;;;;24.26;42.84;96772.91;4216333;28;5085;-70
2022/09/09 13:57:51;;;;;;;;;;;;;;;24.27;43.25;96769.13;4213717;28;5820;-70
2022/09/09 13:59:56;;;;;;;;;;;;;;;24.31;43.00;96766.66;4203665;28;6461;-70
2022/09/09 14:02:09;;;;;;;;;;;;;;;24.33;42.92;96768.00;4211739;28;5790;-71
2022/09/09 14:04:12;;;;;;;;;;;;;;;24.34;42.96;96766.91;4209810;28;5872;-70
2022/09/09 14:06:18;;;;;;;;;;;;;;;24.34;43.01;96775.00;4210251;28;5694;-71
2022/09/09 14:08:26;;;;;;;;;;;;;;;24.33;43.07;96767.19;4206820;28;5994;-70
2022/09/09 14:10:29;;;;;;;;;;;;;;;24.32;43.21;96765.59;4216577;28;5711;-70
2022/09/09 14:12:31;;;;;;;;;;;;;;;24.29;43.24;96766.13;4207500;28;5685;-71
2022/09/09 14:14:34;;;;;;;;;;;;;;;24.30;43.11;96765.03;4217913;28;5675;-70
2022/09/09 14:16:37;;;;;;;;;;;;;;;24.30;43.04;96771.28;4202558;28;5697;-70
2022/09/09 14:18:41;;;;;;;;;;;;;;;24.30;42.75;96770.44;4201330;28;5847;-71
2022/09/09 14:20:44;;;;;;;;;;;;;;;24.29;42.75;96769.63;4200941;28;5681;-71
2022/09/09 14:22:47;;;;;;;;;;;;;;;24.31;43.11;96761.28;4201003;28;5781;-71
2022/09/09 14:24:50;;;;;;;;;;;;;;;24.31;43.21;96764.78;4206799;28;5659;-71
2022/09/09 14:26:52;;;;;;;;;;;;;;;24.30;42.93;96763.16;4210755;28;5729;-71
2022/09/09 14:28:55;;;;;;;;;;;;;;;24.31;43.03;96770.19;4206900;28;5860;-71
2022/09/09 14:31:01;;;;;;;;;;;;;;;24.32;43.22;96765.59;4214490;28;5668;-70
2022/09/09 14:33:04;;;;;;;;;;;;;;;24.32;42.80;96771.00;4211644;28;5732;-71
2022/09/09 14:35:09;;;;;;;;;;;;;;;24.34;43.20;96769.63;4208702;28;5664;-71
2022/09/09 14:37:12;;;;;;;;;;;;;;;24.34;42.93;96763.41;4212481;28;5701;-71
2022/09/09 14:39:15;;;;;;;;;;;;;;;24.34;42.76;96758.81;4209888;28;5740;-70
2022/09/09 14:41:19;;;;;;;;;;;;;;;24.36;43.04;96762.06;4216111;28;5676;-71
2022/09/09 14:43:22;;;;;;;;;;;;;;;24.41;42.59;96760.38;4216529;28;5679;-71
2022/09/09 14:45:26;;;;;;;;;;;;;;;24.45;42.92;96774.94;4216375;28;5190;-71
2022/09/09 14:47:29;;;;;;;;;;;;;;;24.45;42.99;96769.53;4216390;28;5774;-71
2022/09/09 14:49:32;;;;;;;;;;;;;;;24.48;42.95;96766.28;4214680;28;7819;-71
2022/09/09 14:51:35;;;;;;;;;;;;;;;24.45;42.44;96756.84;4214588;27;5664;-71
2022/09/09 14:53:38;;;;;;;;;;;;;;;24.43;42.50;96769.03;4215147;28;5766;-71
2022/09/09 14:55:42;;;;;;;;;;;;;;;24.41;42.54;96763.91;4215688;28;5873;-71
2022/09/09 14:57:45;;;;;;;;;;;;;;;24.39;42.21;96766.09;4214960;28;5932;-71
2022/09/09 14:59:50;;;;;;;;;;;;;;;24.37;42.48;96765.56;4216190;28;5672;-71